LNKJL ENBR-ENUL
Flight info
| Callsign | LNKJL |
|---|---|
| Flight time | 0h -13m |
| Altitude | 1000 |
| Route | VFR FLIGHT TO OS |
| Aircraft | C152/L-S/L |
Departure
| Time | 2026-04-30 20:47 |
|---|---|
| Airport | Bergen Airport, Flesland (ENBR) |
Arrival
| Time | 2026-04-30 20:33 |
|---|---|
| Airport | Os Vaksinen Ulven Airfield (ENUL) |
| Time | Latitude | Longitude | Altitude | Speed | Heading |
|---|---|---|---|---|---|
| 2026-04-30 20:33 | 60.29964 | 5.22655 | 153 ft | 0 kts | 285° |
| 2026-04-30 20:41 | 60.29962 | 5.22670 | 153 ft | 2 kts | 285° |
| 2026-04-30 20:42 | 60.29959 | 5.22687 | 153 ft | 1 kts | 285° |
| 2026-04-30 20:42 | 60.29956 | 5.22708 | 153 ft | 2 kts | 285° |
| 2026-04-30 20:42 | 60.29884 | 5.22654 | 153 ft | 9 kts | 184° |
| 2026-04-30 20:43 | 60.29826 | 5.22604 | 152 ft | 10 kts | 211° |
| 2026-04-30 20:43 | 60.29775 | 5.22489 | 152 ft | 12 kts | 241° |
| 2026-04-30 20:43 | 60.29751 | 5.22329 | 152 ft | 12 kts | 260° |
| 2026-04-30 20:44 | 60.29722 | 5.21972 | 152 ft | 13 kts | 263° |
| 2026-04-30 20:44 | 60.29718 | 5.21882 | 152 ft | 0 kts | 265° |
| 2026-04-30 20:44 | 60.29714 | 5.21803 | 152 ft | 14 kts | 263° |
| 2026-04-30 20:45 | 60.29610 | 5.21725 | 151 ft | 29 kts | 170° |
| 2026-04-30 20:45 | 60.29236 | 5.21847 | 150 ft | 73 kts | 169° |
| 2026-04-30 20:45 | 60.28702 | 5.22044 | 257 ft | 80 kts | 167° |
| 2026-04-30 20:46 | 60.27140 | 5.23247 | 629 ft | 82 kts | 142° |
| 2026-04-30 20:46 | 60.26788 | 5.24186 | 717 ft | 83 kts | 124° |
| 2026-04-30 20:47 | 60.26171 | 5.26075 | 959 ft | 80 kts | 129° |
| 2026-04-30 20:47 | 60.25859 | 5.27017 | 1063 ft | 82 kts | 123° |
| 2026-04-30 20:48 | 60.25340 | 5.29095 | 1215 ft | 83 kts | 131° |
| 2026-04-30 20:48 | 60.24920 | 5.29936 | 1239 ft | 85 kts | 142° |
| 2026-04-30 20:48 | 60.24499 | 5.30783 | 1277 ft | 86 kts | 139° |
| 2026-04-30 20:48 | 60.24088 | 5.31677 | 1252 ft | 89 kts | 127° |
| 2026-04-30 20:49 | 60.24172 | 5.32924 | 1325 ft | 99 kts | 65° |
| 2026-04-30 20:49 | 60.24591 | 5.34009 | 1391 ft | 100 kts | 53° |
| 2026-04-30 20:49 | 60.25051 | 5.35089 | 1395 ft | 103 kts | 56° |
| 2026-04-30 20:50 | 60.25889 | 5.37292 | 1458 ft | 97 kts | 57° |
| 2026-04-30 20:50 | 60.26296 | 5.38383 | 1488 ft | 98 kts | 53° |
| 2026-04-30 20:50 | 60.26717 | 5.39436 | 1535 ft | 95 kts | 59° |
| 2026-04-30 20:50 | 60.26855 | 5.40632 | 1599 ft | 89 kts | 110° |
| 2026-04-30 20:51 | 60.26405 | 5.41515 | 1491 ft | 96 kts | 166° |
| 2026-04-30 20:51 | 60.25235 | 5.40612 | 1445 ft | 92 kts | 187° |
| 2026-04-30 20:51 | 60.24620 | 5.40444 | 1507 ft | 88 kts | 192° |
| 2026-04-30 20:52 | 60.24022 | 5.40019 | 1490 ft | 92 kts | 203° |
| 2026-04-30 20:52 | 60.23454 | 5.39444 | 1565 ft | 91 kts | 206° |
| 2026-04-30 20:52 | 60.22279 | 5.39017 | 1554 ft | 90 kts | 164° |
| 2026-04-30 20:53 | 60.21665 | 5.39211 | 1533 ft | 90 kts | 181° |
| 2026-04-30 20:53 | 60.21052 | 5.39069 | 1539 ft | 90 kts | 192° |
| 2026-04-30 20:53 | 60.20429 | 5.38964 | 1479 ft | 90 kts | 176° |
| 2026-04-30 20:54 | 60.19328 | 5.39086 | 1445 ft | 54 kts | 175° |
| 2026-04-30 20:54 | 60.19002 | 5.39456 | 1301 ft | 61 kts | 144° |
| 2026-04-30 20:54 | 60.18706 | 5.40087 | 1023 ft | 62 kts | 118° |
| 2026-04-30 20:55 | 60.18937 | 5.41662 | 235 ft | 61 kts | 51° |
| 2026-04-30 20:55 | 60.19178 | 5.42107 | 200 ft | 28 kts | 39° |
| 2026-04-30 20:55 | 60.19230 | 5.42149 | 201 ft | 4 kts | 314° |
| 2026-04-30 20:56 | 60.19241 | 5.42126 | 201 ft | 0 kts | 315° |